sensor_id;sensor_type;location;lat;lon;timestamp;pressure;altitude;pressure_sealevel;temperature;humidity
29903;BME280;30288;50.514;9.678;2023-05-19T00:01:47;99491.13;;;8.20;100.00
29903;BME280;30288;50.514;9.678;2023-05-19T00:03:56;99494.50;;;8.13;100.00
29903;BME280;30288;50.514;9.678;2023-05-19T00:06:04;99496.25;;;8.01;100.00
29903;BME280;30288;50.514;9.678;2023-05-19T00:08:11;99494.59;;;7.98;100.00
29903;BME280;30288;50.514;9.678;2023-05-19T00:10:24;99492.13;;;7.84;100.00
29903;BME280;30288;50.514;9.678;2023-05-19T00:12:33;99492.19;;;7.75;100.00
29903;BME280;30288;50.514;9.678;2023-05-19T00:14:40;99492.22;;;7.66;100.00
29903;BME280;30288;50.514;9.678;2023-05-19T00:16:46;99492.28;;;7.60;100.00
29903;BME280;30288;50.514;9.678;2023-05-19T00:18:51;99490.63;;;7.47;100.00
29903;BME280;30288;50.514;9.678;2023-05-19T00:20:58;99487.34;;;7.22;100.00
29903;BME280;30288;50.514;9.678;2023-05-19T00:23:03;99491.56;;;7.14;100.00
29903;BME280;30288;50.514;9.678;2023-05-19T00:25:09;99486.56;;;7.03;100.00
29903;BME280;30288;50.514;9.678;2023-05-19T00:27:17;99487.41;;;7.06;100.00
29903;BME280;30288;50.514;9.678;2023-05-19T00:29:22;99485.75;;;6.92;100.00
29903;BME280;30288;50.514;9.678;2023-05-19T00:31:27;99485.75;;;6.86;100.00
29903;BME280;30288;50.514;9.678;2023-05-19T00:33:35;99487.44;;;6.81;100.00
29903;BME280;30288;50.514;9.678;2023-05-19T00:35:40;99487.41;;;6.75;100.00
29903;BME280;30288;50.514;9.678;2023-05-19T00:37:45;99480.75;;;6.80;100.00
29903;BME280;30288;50.514;9.678;2023-05-19T00:39:51;99482.44;;;6.72;100.00
29903;BME280;30288;50.514;9.678;2023-05-19T00:41:56;99482.44;;;6.74;100.00
29903;BME280;30288;50.514;9.678;2023-05-19T00:44:05;99487.44;;;6.68;100.00
29903;BME280;30288;50.514;9.678;2023-05-19T00:46:10;99480.75;;;6.62;100.00
29903;BME280;30288;50.514;9.678;2023-05-19T00:48:16;99482.44;;;6.51;100.00
29903;BME280;30288;50.514;9.678;2023-05-19T00:50:22;99479.94;;;6.40;100.00
29903;BME280;30288;50.514;9.678;2023-05-19T00:52:28;99479.06;;;6.37;100.00
29903;BME280;30288;50.514;9.678;2023-05-19T00:54:34;99482.44;;;6.36;100.00
29903;BME280;30288;50.514;9.678;2023-05-19T00:56:40;99482.41;;;6.30;100.00
29903;BME280;30288;50.514;9.678;2023-05-19T00:58:47;99480.72;;;6.23;100.00
29903;BME280;30288;50.514;9.678;2023-05-19T01:00:57;99479.06;;;6.19;100.00
29903;BME280;30288;50.514;9.678;2023-05-19T01:03:06;99477.41;;;6.21;100.00
29903;BME280;30288;50.514;9.678;2023-05-19T01:05:13;99474.06;;;6.15;100.00
29903;BME280;30288;50.514;9.678;2023-05-19T01:07:18;99475.72;;;6.17;100.00
29903;BME280;30288;50.514;9.678;2023-05-19T01:09:24;99477.41;;;6.24;100.00
29903;BME280;30288;50.514;9.678;2023-05-19T01:11:29;99474.03;;;6.14;100.00
29903;BME280;30288;50.514;9.678;2023-05-19T01:13:35;99475.72;;;6.13;100.00
29903;BME280;30288;50.514;9.678;2023-05-19T01:16:00;99479.88;;;6.11;100.00
29903;BME280;30288;50.514;9.678;2023-05-19T01:18:13;99481.53;;;6.06;100.00
29903;BME280;30288;50.514;9.678;2023-05-19T01:20:26;99468.19;;;6.06;100.00
29903;BME280;30288;50.514;9.678;2023-05-19T01:23:00;99470.69;;;5.92;100.00
29903;BME280;30288;50.514;9.678;2023-05-19T01:25:43;99473.19;;;5.92;100.00
29903;BME280;30288;50.514;9.678;2023-05-19T01:28:25;99469.81;;;5.87;100.00
29903;BME280;30288;50.514;9.678;2023-05-19T01:30:39;99465.63;;;5.83;100.00
29903;BME280;30288;50.514;9.678;2023-05-19T01:32:47;99472.25;;;5.75;100.00
29903;BME280;30288;50.514;9.678;2023-05-19T01:34:54;99467.25;;;5.69;100.00
29903;BME280;30288;50.514;9.678;2023-05-19T01:37:00;99465.56;;;5.68;100.00
29903;BME280;30288;50.514;9.678;2023-05-19T01:39:07;99460.56;;;5.68;100.00
29903;BME280;30288;50.514;9.678;2023-05-19T01:41:13;99465.50;;;5.53;100.00
29903;BME280;30288;50.514;9.678;2023-05-19T01:43:23;99470.53;;;5.56;100.00
29903;BME280;30288;50.514;9.678;2023-05-19T01:45:32;99467.19;;;5.57;100.00
29903;BME280;30288;50.514;9.678;2023-05-19T01:47:43;99465.53;;;5.59;100.00
29903;BME280;30288;50.514;9.678;2023-05-19T01:49:48;99468.03;;;5.59;100.00
29903;BME280;30288;50.514;9.678;2023-05-19T01:51:55;99468.03;;;5.54;100.00
29903;BME280;30288;50.514;9.678;2023-05-19T01:54:01;99470.47;;;5.44;100.00
29903;BME280;30288;50.514;9.678;2023-05-19T01:56:07;99469.66;;;5.45;100.00
29903;BME280;30288;50.514;9.678;2023-05-19T01:58:20;99464.63;;;5.40;100.00
29903;BME280;30288;50.514;9.678;2023-05-19T02:00:36;99469.59;;;5.36;100.00
29903;BME280;30288;50.514;9.678;2023-05-19T02:02:58;99468.75;;;5.31;100.00
29903;BME280;30288;50.514;9.678;2023-05-19T02:05:17;99467.03;;;5.23;100.00
29903;BME280;30288;50.514;9.678;2023-05-19T02:07:40;99477.84;;;5.16;100.00
29903;BME280;30288;50.514;9.678;2023-05-19T02:09:53;99468.72;;;5.24;100.00
29903;BME280;30288;50.514;9.678;2023-05-19T02:12:10;99469.50;;;5.19;100.00
29903;BME280;30288;50.514;9.678;2023-05-19T02:14:27;99471.13;;;5.11;100.00
29903;BME280;30288;50.514;9.678;2023-05-19T02:16:35;99474.47;;;5.08;100.00
29903;BME280;30288;50.514;9.678;2023-05-19T02:18:45;99464.38;;;4.96;100.00
29903;BME280;30288;50.514;9.678;2023-05-19T02:20:50;99471.06;;;4.94;100.00
29903;BME280;30288;50.514;9.678;2023-05-19T02:22:55;99477.69;;;4.95;100.00
29903;BME280;30288;50.514;9.678;2023-05-19T02:25:01;99473.53;;;4.94;100.00
29903;BME280;30288;50.514;9.678;2023-05-19T02:27:07;99470.19;;;4.92;100.00
29903;BME280;30288;50.514;9.678;2023-05-19T02:29:12;99476.81;;;4.90;100.00
29903;BME280;30288;50.514;9.678;2023-05-19T02:31:17;99478.50;;;4.91;100.00
29903;BME280;30288;50.514;9.678;2023-05-19T02:33:23;99478.50;;;4.91;100.00
29903;BME280;30288;50.514;9.678;2023-05-19T02:35:31;99467.66;;;4.88;100.00
29903;BME280;30288;50.514;9.678;2023-05-19T02:37:36;99466.81;;;4.87;100.00
29903;BME280;30288;50.514;9.678;2023-05-19T02:39:42;99471.78;;;4.81;100.00
29903;BME280;30288;50.514;9.678;2023-05-19T02:41:47;99474.19;;;4.72;100.00
29903;BME280;30288;50.514;9.678;2023-05-19T02:43:52;99470.09;;;4.80;100.00
29903;BME280;30288;50.514;9.678;2023-05-19T02:45:57;99468.44;;;4.79;100.00
29903;BME280;30288;50.514;9.678;2023-05-19T02:48:04;99463.47;;;4.82;100.00
29903;BME280;30288;50.514;9.678;2023-05-19T02:50:09;99465.97;;;4.83;100.00
29903;BME280;30288;50.514;9.678;2023-05-19T02:52:18;99461.81;;;4.84;100.00
29903;BME280;30288;50.514;9.678;2023-05-19T02:54:23;99458.41;;;4.76;100.00
29903;BME280;30288;50.514;9.678;2023-05-19T02:56:28;99457.53;;;4.68;100.00
29903;BME280;30288;50.514;9.678;2023-05-19T02:58:33;99456.72;;;4.69;100.00
29903;BME280;30288;50.514;9.678;2023-05-19T03:00:39;99460.03;;;4.68;100.00
29903;BME280;30288;50.514;9.678;2023-05-19T03:02:46;99456.69;;;4.66;100.00
29903;BME280;30288;50.514;9.678;2023-05-19T03:04:54;99461.66;;;4.60;100.00
29903;BME280;30288;50.514;9.678;2023-05-19T03:06:59;99462.44;;;4.54;100.00
29903;BME280;30288;50.514;9.678;2023-05-19T03:09:07;99458.34;;;4.67;100.00
29903;BME280;30288;50.514;9.678;2023-05-19T03:11:13;99458.38;;;4.68;100.00
29903;BME280;30288;50.514;9.678;2023-05-19T03:13:18;99465.03;;;4.68;100.00
29903;BME280;30288;50.514;9.678;2023-05-19T03:15:23;99465.81;;;4.61;100.00
29903;BME280;30288;50.514;9.678;2023-05-19T03:17:28;99456.59;;;4.51;100.00
29903;BME280;30288;50.514;9.678;2023-05-19T03:19:36;99466.59;;;4.54;100.00
29903;BME280;30288;50.514;9.678;2023-05-19T03:21:43;99468.19;;;4.49;100.00
29903;BME280;30288;50.514;9.678;2023-05-19T03:23:48;99457.44;;;4.51;100.00
29903;BME280;30288;50.514;9.678;2023-05-19T03:25:56;99468.13;;;4.36;100.00
29903;BME280;30288;50.514;9.678;2023-05-19T03:28:02;99466.44;;;4.35;100.00
29903;BME280;30288;50.514;9.678;2023-05-19T03:30:10;99464.00;;;4.43;100.00
29903;BME280;30288;50.514;9.678;2023-05-19T03:32:45;99457.44;;;4.54;100.00
29903;BME280;30288;50.514;9.678;2023-05-19T03:34:52;99463.19;;;4.46;100.00
29903;BME280;30288;50.514;9.678;2023-05-19T03:36:59;99463.16;;;4.41;100.00
29903;BME280;30288;50.514;9.678;2023-05-19T03:39:05;99468.03;;;4.27;100.00
29903;BME280;30288;50.514;9.678;2023-05-19T03:41:13;99464.63;;;4.19;100.00
29903;BME280;30288;50.514;9.678;2023-05-19T03:43:18;99467.13;;;4.21;100.00
29903;BME280;30288;50.514;9.678;2023-05-19T03:45:30;99467.97;;;4.21;100.00
29903;BME280;30288;50.514;9.678;2023-05-19T03:47:45;99464.63;;;4.19;100.00
29903;BME280;30288;50.514;9.678;2023-05-19T03:50:25;99474.63;;;4.22;100.00
29903;BME280;30288;50.514;9.678;2023-05-19T03:52:46;99467.09;;;4.19;100.00
29903;BME280;30288;50.514;9.678;2023-05-19T03:55:01;99473.78;;;4.22;100.00
29903;BME280;30288;50.514;9.678;2023-05-19T03:57:09;99484.59;;;4.22;100.00
29903;BME280;30288;50.514;9.678;2023-05-19T03:59:15;99480.44;;;4.24;100.00
29903;BME280;30288;50.514;9.678;2023-05-19T04:01:20;99480.47;;;4.23;100.00
29903;BME280;30288;50.514;9.678;2023-05-19T04:03:25;99479.63;;;4.22;100.00
29903;BME280;30288;50.514;9.678;2023-05-19T04:05:31;99480.50;;;4.27;100.00
29903;BME280;30288;50.514;9.678;2023-05-19T04:07:36;99488.06;;;4.36;100.00
29903;BME280;30288;50.514;9.678;2023-05-19T04:09:42;99493.03;;;4.38;100.00
29903;BME280;30288;50.514;9.678;2023-05-19T04:11:47;99493.13;;;4.46;100.00
29903;BME280;30288;50.514;9.678;2023-05-19T04:13:55;99489.78;;;4.44;100.00
29903;BME280;30288;50.514;9.678;2023-05-19T04:16:01;99494.75;;;4.44;100.00
29903;BME280;30288;50.514;9.678;2023-05-19T04:18:06;99488.13;;;4.46;100.00
29903;BME280;30288;50.514;9.678;2023-05-19T04:20:14;99494.81;;;4.47;100.00
29903;BME280;30288;50.514;9.678;2023-05-19T04:22:19;99492.31;;;4.47;100.00
29903;BME280;30288;50.514;9.678;2023-05-19T04:24:25;99486.53;;;4.57;100.00
29903;BME280;30288;50.514;9.678;2023-05-19T04:26:30;99492.38;;;4.54;100.00
29903;BME280;30288;50.514;9.678;2023-05-19T04:28:36;99496.50;;;4.51;100.00
29903;BME280;30288;50.514;9.678;2023-05-19T04:30:46;99491.53;;;4.54;100.00
29903;BME280;30288;50.514;9.678;2023-05-19T04:32:51;99494.91;;;4.62;100.00
29903;BME280;30288;50.514;9.678;2023-05-19T04:34:59;99491.59;;;4.63;100.00
29903;BME280;30288;50.514;9.678;2023-05-19T04:37:06;99488.28;;;4.67;100.00
29903;BME280;30288;50.514;9.678;2023-05-19T04:39:12;99488.38;;;4.76;100.00
29903;BME280;30288;50.514;9.678;2023-05-19T04:41:19;99488.41;;;4.79;100.00
29903;BME280;30288;50.514;9.678;2023-05-19T04:43:25;99495.09;;;4.86;100.00
29903;BME280;30288;50.514;9.678;2023-05-19T04:45:30;99494.31;;;4.92;100.00
29903;BME280;30288;50.514;9.678;2023-05-19T04:47:42;99488.53;;;5.00;100.00
29903;BME280;30288;50.514;9.678;2023-05-19T04:49:48;99490.31;;;5.16;100.00
29903;BME280;30288;50.514;9.678;2023-05-19T04:51:57;99482.94;;;5.36;100.00
29903;BME280;30288;50.514;9.678;2023-05-19T04:54:04;99483.78;;;5.44;100.00
29903;BME280;30288;50.514;9.678;2023-05-19T04:56:09;99482.16;;;5.51;100.00
29903;BME280;30288;50.514;9.678;2023-05-19T04:58:19;99486.38;;;5.59;100.00
29903;BME280;30288;50.514;9.678;2023-05-19T05:00:27;99483.91;;;5.76;100.00
29903;BME280;30288;50.514;9.678;2023-05-19T05:02:36;99483.09;;;5.77;100.00
29903;BME280;30288;50.514;9.678;2023-05-19T05:04:45;99484.00;;;5.91;100.00
29903;BME280;30288;50.514;9.678;2023-05-19T05:06:51;99480.69;;;5.98;100.00
29903;BME280;30288;50.514;9.678;2023-05-19T05:08:58;99488.22;;;6.06;100.00
29903;BME280;30288;50.514;9.678;2023-05-19T05:11:07;99489.06;;;6.15;100.00
29903;BME280;30288;50.514;9.678;2023-05-19T05:13:13;99485.72;;;6.23;100.00
29903;BME280;30288;50.514;9.678;2023-05-19T05:15:20;99489.09;;;6.31;100.00
29903;BME280;30288;50.514;9.678;2023-05-19T05:17:27;99492.44;;;6.45;100.00
29903;BME280;30288;50.514;9.678;2023-05-19T05:19:34;99494.94;;;6.58;100.00
29903;BME280;30288;50.514;9.678;2023-05-19T05:21:43;99483.25;;;6.71;100.00
29903;BME280;30288;50.514;9.678;2023-05-19T05:23:50;99479.09;;;6.79;100.00
29903;BME280;30288;50.514;9.678;2023-05-19T05:25:59;99483.22;;;6.94;100.00
29903;BME280;30288;50.514;9.678;2023-05-19T05:28:09;99486.56;;;7.13;100.00
29903;BME280;30288;50.514;9.678;2023-05-19T05:30:15;99484.03;;;7.22;100.00
29903;BME280;30288;50.514;9.678;2023-05-19T05:32:21;99479.00;;;7.25;100.00
29903;BME280;30288;50.514;9.678;2023-05-19T05:34:28;99494.84;;;7.40;100.00
29903;BME280;30288;50.514;9.678;2023-05-19T05:36:35;99488.13;;;7.50;100.00
29903;BME280;30288;50.514;9.678;2023-05-19T05:38:44;99482.22;;;7.63;100.00
29903;BME280;30288;50.514;9.678;2023-05-19T05:40:50;99489.69;;;7.72;100.00
29903;BME280;30288;50.514;9.678;2023-05-19T05:42:55;99485.47;;;7.86;100.00
29903;BME280;30288;50.514;9.678;2023-05-19T05:45:06;99482.88;;;7.99;100.00
29903;BME280;30288;50.514;9.678;2023-05-19T05:47:13;99485.34;;;8.08;100.00
29903;BME280;30288;50.514;9.678;2023-05-19T05:49:21;99485.28;;;8.14;100.00
29903;BME280;30288;50.514;9.678;2023-05-19T05:51:27;99486.91;;;8.24;100.00
29903;BME280;30288;50.514;9.678;2023-05-19T05:53:39;99478.50;;;8.32;100.00
29903;BME280;30288;50.514;9.678;2023-05-19T05:55:51;99484.31;;;8.45;100.00
29903;BME280;30288;50.514;9.678;2023-05-19T05:58:01;99476.66;;;8.57;100.00
29903;BME280;30288;50.514;9.678;2023-05-19T06:00:09;99469.09;;;8.63;100.00
29903;BME280;30288;50.514;9.678;2023-05-19T06:02:17;99471.44;;;8.82;100.00
29903;BME280;30288;50.514;9.678;2023-05-19T06:04:23;99478.00;;;8.96;100.00
29903;BME280;30288;50.514;9.678;2023-05-19T06:06:29;99474.53;;;9.08;100.00
29903;BME280;30288;50.514;9.678;2023-05-19T06:08:36;99476.13;;;9.15;100.00
29903;BME280;30288;50.514;9.678;2023-05-19T06:10:42;99467.56;;;9.34;100.00
29903;BME280;30288;50.514;9.678;2023-05-19T06:12:51;99467.38;;;9.49;100.00
29903;BME280;30288;50.514;9.678;2023-05-19T06:14:57;99463.78;;;9.69;100.00
29903;BME280;30288;50.514;9.678;2023-05-19T06:17:23;99465.25;;;9.85;100.00
29903;BME280;30288;50.514;9.678;2023-05-19T06:19:28;99466.56;;;10.10;100.00
29903;BME280;30288;50.514;9.678;2023-05-19T06:21:34;99459.00;;;10.12;100.00
29903;BME280;30288;50.514;9.678;2023-05-19T06:23:39;99460.44;;;10.31;100.00
29903;BME280;30288;50.514;9.678;2023-05-19T06:25:45;99455.81;;;10.56;100.00
29903;BME280;30288;50.514;9.678;2023-05-19T06:27:53;99458.75;;;10.82;100.00
29903;BME280;30288;50.514;9.678;2023-05-19T06:29:58;99458.66;;;10.88;100.00
29903;BME280;30288;50.514;9.678;2023-05-19T06:32:09;99455.16;;;10.95;100.00
29903;BME280;30288;50.514;9.678;2023-05-19T06:34:14;99446.66;;;11.02;100.00
29903;BME280;30288;50.514;9.678;2023-05-19T06:36:21;99449.19;;;11.01;100.00
29903;BME280;30288;50.514;9.678;2023-05-19T06:38:29;99446.97;;;11.28;100.00
29903;BME280;30288;50.514;9.678;2023-05-19T06:40:35;99441.06;;;11.29;100.00
29903;BME280;30288;50.514;9.678;2023-05-19T06:42:41;99430.69;;;11.45;100.00
29903;BME280;30288;50.514;9.678;2023-05-19T06:45:09;99443.25;;;11.46;100.00
29903;BME280;30288;50.514;9.678;2023-05-19T06:47:14;99447.84;;;11.69;100.00
29903;BME280;30288;50.514;9.678;2023-05-19T06:49:20;99436.50;;;11.88;100.00
29903;BME280;30288;50.514;9.678;2023-05-19T06:51:25;99437.84;;;12.04;100.00
29903;BME280;30288;50.514;9.678;2023-05-19T06:53:32;99432.31;;;12.25;100.00
29903;BME280;30288;50.514;9.678;2023-05-19T06:55:41;99433.94;;;12.26;100.00
29903;BME280;30288;50.514;9.678;2023-05-19T06:58:02;99425.06;;;12.46;100.00
29903;BME280;30288;50.514;9.678;2023-05-19T07:00:12;99433.66;;;12.39;100.00
29903;BME280;30288;50.514;9.678;2023-05-19T07:02:26;99428.41;;;12.46;100.00
29903;BME280;30288;50.514;9.678;2023-05-19T07:04:32;99431.50;;;12.59;100.00
29903;BME280;30288;50.514;9.678;2023-05-19T07:06:37;99434.72;;;12.64;100.00
29903;BME280;30288;50.514;9.678;2023-05-19T07:08:43;99432.38;;;12.56;100.00
29903;BME280;30288;50.514;9.678;2023-05-19T07:10:48;99437.88;;;12.72;100.00
29903;BME280;30288;50.514;9.678;2023-05-19T07:12:54;99430.84;;;12.83;100.00
29903;BME280;30288;50.514;9.678;2023-05-19T07:15:04;99428.72;;;13.00;100.00
29903;BME280;30288;50.514;9.678;2023-05-19T07:17:14;99435.69;;;13.25;100.00
29903;BME280;30288;50.514;9.678;2023-05-19T07:19:20;99434.09;;;13.50;100.00
29903;BME280;30288;50.514;9.678;2023-05-19T07:21:27;99431.63;;;13.78;100.00
29903;BME280;30288;50.514;9.678;2023-05-19T07:23:32;99419.38;;;13.92;100.00
29903;BME280;30288;50.514;9.678;2023-05-19T07:25:37;99423.19;;;13.77;100.00
29903;BME280;30288;50.514;9.678;2023-05-19T07:27:42;99413.09;;;14.03;100.00
29903;BME280;30288;50.514;9.678;2023-05-19T07:29:48;99408.13;;;14.27;100.00
29903;BME280;30288;50.514;9.678;2023-05-19T07:31:53;99407.56;;;14.45;100.00
29903;BME280;30288;50.514;9.678;2023-05-19T07:34:02;99401.59;;;14.72;100.00
29903;BME280;30288;50.514;9.678;2023-05-19T07:36:07;99402.72;;;15.12;100.00
29903;BME280;30288;50.514;9.678;2023-05-19T07:38:12;99400.53;;;15.03;100.00
29903;BME280;30288;50.514;9.678;2023-05-19T07:40:18;99400.63;;;15.00;100.00
29903;BME280;30288;50.514;9.678;2023-05-19T07:42:23;99395.63;;;15.21;100.00
29903;BME280;30288;50.514;9.678;2023-05-19T07:44:28;99387.75;;;15.29;100.00
29903;BME280;30288;50.514;9.678;2023-05-19T07:46:36;99386.94;;;15.50;100.00
29903;BME280;30288;50.514;9.678;2023-05-19T07:48:41;99385.88;;;15.57;100.00
29903;BME280;30288;50.514;9.678;2023-05-19T07:50:50;99373.84;;;15.39;100.00
29903;BME280;30288;50.514;9.678;2023-05-19T07:52:56;99377.81;;;15.23;100.00
29903;BME280;30288;50.514;9.678;2023-05-19T07:55:01;99385.88;;;15.11;100.00
29903;BME280;30288;50.514;9.678;2023-05-19T07:57:06;99381.84;;;15.05;100.00
29903;BME280;30288;50.514;9.678;2023-05-19T07:59:11;99376.28;;;15.19;100.00
29903;BME280;30288;50.514;9.678;2023-05-19T08:01:17;99374.19;;;15.30;100.00
29903;BME280;30288;50.514;9.678;2023-05-19T08:03:22;99377.03;;;15.44;100.00
29903;BME280;30288;50.514;9.678;2023-05-19T08:05:28;99377.78;;;15.46;100.00
29903;BME280;30288;50.514;9.678;2023-05-19T08:07:36;99375.72;;;15.57;100.00
29903;BME280;30288;50.514;9.678;2023-05-19T08:09:41;99365.72;;;15.74;100.00
29903;BME280;30288;50.514;9.678;2023-05-19T08:11:46;99366.59;;;15.73;100.00
29903;BME280;30288;50.514;9.678;2023-05-19T08:13:51;99373.53;;;15.70;100.00
29903;BME280;30288;50.514;9.678;2023-05-19T08:15:56;99366.88;;;15.67;100.00
29903;BME280;30288;50.514;9.678;2023-05-19T08:18:01;99359.44;;;15.83;100.00
29903;BME280;30288;50.514;9.678;2023-05-19T08:20:08;99374.22;;;15.95;100.00
29903;BME280;30288;50.514;9.678;2023-05-19T08:22:14;99369.09;;;16.17;100.00
29903;BME280;30288;50.514;9.678;2023-05-19T08:24:22;99357.81;;;16.44;100.00
29903;BME280;30288;50.514;9.678;2023-05-19T08:26:28;99363.97;;;16.79;100.00
29903;BME280;30288;50.514;9.678;2023-05-19T08:28:33;99358.81;;;17.01;100.00
29903;BME280;30288;50.514;9.678;2023-05-19T08:30:38;99360.59;;;17.36;100.00
29903;BME280;30288;50.514;9.678;2023-05-19T08:32:44;99350.09;;;17.80;100.00
29903;BME280;30288;50.514;9.678;2023-05-19T08:34:50;99346.16;;;18.09;100.00
29903;BME280;30288;50.514;9.678;2023-05-19T08:36:55;99337.97;;;18.36;100.00
29903;BME280;30288;50.514;9.678;2023-05-19T08:39:01;99330.47;;;18.16;100.00
29903;BME280;30288;50.514;9.678;2023-05-19T08:41:09;99333.63;;;18.39;100.00
29903;BME280;30288;50.514;9.678;2023-05-19T08:43:14;99326.34;;;18.48;100.00
29903;BME280;30288;50.514;9.678;2023-05-19T08:45:19;99323.94;;;18.28;100.00
29903;BME280;30288;50.514;9.678;2023-05-19T08:47:26;99323.41;;;18.56;100.00
29903;BME280;30288;50.514;9.678;2023-05-19T08:49:34;99321.09;;;18.84;100.00
29903;BME280;30288;50.514;9.678;2023-05-19T08:51:48;99321.94;;;19.00;100.00
29903;BME280;30288;50.514;9.678;2023-05-19T08:53:59;99311.06;;;18.81;100.00
29903;BME280;30288;50.514;9.678;2023-05-19T08:56:12;99322.19;;;19.11;100.00
29903;BME280;30288;50.514;9.678;2023-05-19T08:58:18;99311.72;;;19.32;100.00
29903;BME280;30288;50.514;9.678;2023-05-19T09:00:27;99304.13;;;18.67;97.36
29903;BME280;30288;50.514;9.678;2023-05-19T09:02:34;99309.50;;;18.44;99.06
29903;BME280;30288;50.514;9.678;2023-05-19T09:05:01;99317.78;;;17.98;100.00
29903;BME280;30288;50.514;9.678;2023-05-19T09:07:07;99317.44;;;18.05;100.00
29903;BME280;30288;50.514;9.678;2023-05-19T09:09:12;99313.22;;;17.87;99.48
29903;BME280;30288;50.514;9.678;2023-05-19T09:11:21;99317.84;;;18.30;99.73
29903;BME280;30288;50.514;9.678;2023-05-19T09:13:27;99312.31;;;18.57;100.00
29903;BME280;30288;50.514;9.678;2023-05-19T09:15:34;99312.22;;;18.91;94.08
29903;BME280;30288;50.514;9.678;2023-05-19T09:17:39;99315.50;;;18.93;94.88
29903;BME280;30288;50.514;9.678;2023-05-19T09:19:46;99310.22;;;18.96;91.00
29903;BME280;30288;50.514;9.678;2023-05-19T09:21:57;99314.19;;;19.17;99.15
29903;BME280;30288;50.514;9.678;2023-05-19T09:24:06;99306.47;;;19.19;86.90
29903;BME280;30288;50.514;9.678;2023-05-19T09:26:14;99305.06;;;19.45;87.81
29903;BME280;30288;50.514;9.678;2023-05-19T09:28:26;99300.19;;;19.72;89.20
29903;BME280;30288;50.514;9.678;2023-05-19T09:30:32;99300.31;;;19.84;85.95
29903;BME280;30288;50.514;9.678;2023-05-19T09:32:37;99290.84;;;20.00;83.55
29903;BME280;30288;50.514;9.678;2023-05-19T09:34:43;99290.47;;;20.06;85.59
29903;BME280;30288;50.514;9.678;2023-05-19T09:36:49;99292.72;;;20.27;88.15
29903;BME280;30288;50.514;9.678;2023-05-19T09:38:55;99284.69;;;20.19;82.04
29903;BME280;30288;50.514;9.678;2023-05-19T09:41:00;99283.97;;;20.31;83.67
29903;BME280;30288;50.514;9.678;2023-05-19T09:43:07;99283.63;;;20.37;78.20
29903;BME280;30288;50.514;9.678;2023-05-19T09:45:15;99286.13;;;20.23;77.91
29903;BME280;30288;50.514;9.678;2023-05-19T09:47:20;99279.34;;;20.37;78.77
29903;BME280;30288;50.514;9.678;2023-05-19T09:49:27;99282.63;;;19.95;77.86
29903;BME280;30288;50.514;9.678;2023-05-19T09:51:34;99287.34;;;19.42;79.66
29903;BME280;30288;50.514;9.678;2023-05-19T09:53:40;99286.84;;;19.67;84.69
29903;BME280;30288;50.514;9.678;2023-05-19T09:55:47;99276.59;;;20.10;82.15
29903;BME280;30288;50.514;9.678;2023-05-19T09:57:54;99279.41;;;20.78;83.81
29903;BME280;30288;50.514;9.678;2023-05-19T10:00:03;99282.47;;;20.98;79.07
29903;BME280;30288;50.514;9.678;2023-05-19T10:02:23;99276.06;;;21.05;69.72
29903;BME280;30288;50.514;9.678;2023-05-19T10:04:30;99267.13;;;20.83;72.43
29903;BME280;30288;50.514;9.678;2023-05-19T10:06:35;99273.28;;;20.81;77.62
29903;BME280;30288;50.514;9.678;2023-05-19T10:08:41;99271.72;;;20.64;78.13
29903;BME280;30288;50.514;9.678;2023-05-19T10:10:47;99271.91;;;20.89;71.53
29903;BME280;30288;50.514;9.678;2023-05-19T10:12:53;99267.50;;;20.77;74.02
29903;BME280;30288;50.514;9.678;2023-05-19T10:14:59;99255.47;;;20.51;70.16
29903;BME280;30288;50.514;9.678;2023-05-19T10:17:05;99257.13;;;20.52;71.40
29903;BME280;30288;50.514;9.678;2023-05-19T10:19:15;99255.81;;;20.59;80.20
29903;BME280;30288;50.514;9.678;2023-05-19T10:21:20;99253.81;;;20.64;79.29
29903;BME280;30288;50.514;9.678;2023-05-19T10:23:25;99249.03;;;20.72;75.24
29903;BME280;30288;50.514;9.678;2023-05-19T10:25:32;99243.13;;;21.13;76.17
29903;BME280;30288;50.514;9.678;2023-05-19T10:27:43;99237.16;;;21.26;75.19
29903;BME280;30288;50.514;9.678;2023-05-19T10:29:51;99254.78;;;21.31;78.82
29903;BME280;30288;50.514;9.678;2023-05-19T10:32:09;99242.88;;;21.03;74.10
29903;BME280;30288;50.514;9.678;2023-05-19T10:34:47;99251.97;;;20.80;73.02
29903;BME280;30288;50.514;9.678;2023-05-19T10:37:07;99247.44;;;20.57;74.69
29903;BME280;30288;50.514;9.678;2023-05-19T10:39:24;99246.50;;;20.44;75.63
29903;BME280;30288;50.514;9.678;2023-05-19T10:41:38;99243.94;;;20.44;74.45
29903;BME280;30288;50.514;9.678;2023-05-19T10:43:53;99250.88;;;20.84;74.75
29903;BME280;30288;50.514;9.678;2023-05-19T10:46:00;99244.44;;;20.91;72.08
29903;BME280;30288;50.514;9.678;2023-05-19T10:48:10;99248.56;;;20.94;68.79
29903;BME280;30288;50.514;9.678;2023-05-19T10:50:19;99245.72;;;20.99;74.68
29903;BME280;30288;50.514;9.678;2023-05-19T10:52:24;99245.66;;;20.86;71.41
29903;BME280;30288;50.514;9.678;2023-05-19T10:54:42;99244.09;;;21.24;79.35
29903;BME280;30288;50.514;9.678;2023-05-19T10:56:50;99240.63;;;21.52;75.76
29903;BME280;30288;50.514;9.678;2023-05-19T10:59:03;99231.13;;;21.79;70.60
29903;BME280;30288;50.514;9.678;2023-05-19T11:01:12;99236.19;;;21.94;71.69
29903;BME280;30288;50.514;9.678;2023-05-19T11:03:17;99232.41;;;22.37;74.07
29903;BME280;30288;50.514;9.678;2023-05-19T11:05:30;99227.38;;;22.85;70.55
29903;BME280;30288;50.514;9.678;2023-05-19T11:07:35;99215.88;;;23.14;63.90
29903;BME280;30288;50.514;9.678;2023-05-19T11:09:40;99214.44;;;23.10;65.68
29903;BME280;30288;50.514;9.678;2023-05-19T11:11:50;99212.50;;;23.48;64.56
29903;BME280;30288;50.514;9.678;2023-05-19T11:13:55;99216.72;;;23.49;67.46
29903;BME280;30288;50.514;9.678;2023-05-19T11:16:06;99210.56;;;23.04;66.50
29903;BME280;30288;50.514;9.678;2023-05-19T11:18:13;99207.38;;;23.25;69.24